Time;durP1;ratioP1;P1;durP2;ratioP2;P2;SDS_P1;SDS_P2;PMS_P1;PMS_P2;Temp;Humidity;BMP_temperature;BMP_pressure;BME280_temperature;BME280_humidity;BME280_pressure;Samples;Min_cycle;Max_cycle;Signal;HPM_P1;HPM_P2
2022/04/25 00:01:10;;;;;;;16.80;8.10;;;8.80;99.90;;;;;;5021477;28;20053;-71
2022/04/25 00:03:39;;;;;;;18.33;7.47;;;8.80;99.90;;;;;;5020530;28;20177;-72
2022/04/25 00:06:05;;;;;;;20.08;8.15;;;8.80;99.90;;;;;;5022591;28;20057;-71
2022/04/25 00:08:31;;;;;;;20.98;7.88;;;8.70;99.90;;;;;;5023634;28;20516;-70
2022/04/25 00:10:57;;;;;;;13.23;7.63;;;8.70;99.90;;;;;;5025785;28;20044;-71
2022/04/25 00:13:23;;;;;;;13.98;7.15;;;8.70;99.90;;;;;;5025910;28;20520;-72
2022/04/25 00:15:49;;;;;;;24.83;8.75;;;8.70;99.90;;;;;;5025368;28;20049;-71
2022/04/25 00:18:14;;;;;;;15.82;7.25;;;8.70;99.90;;;;;;5025946;28;20398;-71
2022/04/25 00:20:40;;;;;;;14.70;6.75;;;8.70;99.90;;;;;;5025810;28;20495;-71
2022/04/25 00:23:06;;;;;;;15.63;6.88;;;8.70;99.90;;;;;;5025596;28;20045;-71
2022/04/25 00:25:32;;;;;;;20.02;7.30;;;8.70;99.90;;;;;;5028312;28;20041;-71
2022/04/25 00:27:59;;;;;;;19.38;6.43;;;8.70;99.90;;;;;;5026408;28;20116;-71
2022/04/25 00:30:25;;;;;;;11.57;5.45;;;8.70;99.90;;;;;;5025532;28;20041;-71
2022/04/25 00:32:51;;;;;;;14.70;6.63;;;8.70;99.90;;;;;;5027168;28;20772;-71
2022/04/25 00:35:19;;;;;;;18.35;6.53;;;8.70;99.90;;;;;;5025603;28;20073;-72
2022/04/25 00:37:45;;;;;;;14.38;6.07;;;8.70;99.90;;;;;;5023180;28;20049;-71
2022/04/25 00:40:11;;;;;;;12.02;5.75;;;8.80;99.90;;;;;;5026249;28;20041;-71
2022/04/25 00:42:36;;;;;;;14.30;5.55;;;8.70;99.90;;;;;;5022980;28;20064;-71
2022/04/25 00:45:02;;;;;;;12.20;5.20;;;8.80;99.90;;;;;;5024617;28;20068;-71
2022/04/25 00:47:29;;;;;;;11.85;4.95;;;8.80;99.90;;;;;;5026538;28;20292;-71
2022/04/25 00:49:54;;;;;;;9.20;4.30;;;8.80;99.90;;;;;;5024974;28;20045;-71
2022/04/25 00:52:20;;;;;;;12.80;5.18;;;8.80;99.90;;;;;;5024084;28;20183;-71
2022/04/25 00:54:46;;;;;;;13.27;5.25;;;8.80;99.90;;;;;;5026340;28;20041;-71
2022/04/25 00:57:12;;;;;;;15.98;5.63;;;8.80;99.90;;;;;;5022829;28;20029;-71
2022/04/25 00:59:38;;;;;;;12.77;5.45;;;8.70;99.90;;;;;;5025336;28;20067;-71
2022/04/25 01:02:04;;;;;;;12.60;4.90;;;8.70;99.90;;;;;;5020752;28;20053;-71
2022/04/25 01:04:30;;;;;;;11.88;5.10;;;8.70;99.90;;;;;;5025583;28;20307;-71
2022/04/25 01:06:56;;;;;;;12.00;5.35;;;8.70;99.90;;;;;;5025801;28;20045;-73
2022/04/25 01:09:24;;;;;;;13.43;4.70;;;8.70;99.90;;;;;;5025510;28;20500;-73
2022/04/25 01:11:50;;;;;;;9.93;5.95;;;8.60;99.90;;;;;;5023687;28;20049;-71
2022/04/25 01:14:17;;;;;;;14.25;6.45;;;8.60;99.90;;;;;;5021852;28;20088;-70
2022/04/25 01:16:44;;;;;;;9.13;4.43;;;8.60;99.90;;;;;;5024559;28;20044;-71
2022/04/25 01:19:10;;;;;;;12.00;5.20;;;8.60;99.90;;;;;;5022473;28;20041;-71
2022/04/25 01:21:58;;;;;;;13.20;5.40;;;8.60;99.90;;;;;;5022815;28;20679;-71
2022/04/25 01:27:17;;;;;;;13.40;5.60;;;8.50;99.90;;;;;;4986141;28;20103;-71
2022/04/25 01:29:47;;;;;;;14.02;5.85;;;8.50;99.90;;;;;;5020466;28;20091;-71
2022/04/25 01:32:14;;;;;;;14.98;6.18;;;8.50;99.90;;;;;;5017222;28;20041;-71
2022/04/25 01:34:40;;;;;;;14.52;6.00;;;8.50;99.90;;;;;;5025122;28;20080;-71
2022/04/25 01:37:11;;;;;;;14.98;6.85;;;8.40;99.90;;;;;;5026906;28;20057;-71
2022/04/25 01:39:39;;;;;;;13.60;6.45;;;8.50;99.90;;;;;;5023697;28;20046;-71
2022/04/25 01:42:06;;;;;;;12.55;7.03;;;8.40;99.90;;;;;;5021309;28;20064;-71
2022/04/25 01:44:32;;;;;;;11.27;6.82;;;8.40;99.90;;;;;;5023441;28;20565;-72
2022/04/25 01:46:58;;;;;;;15.63;6.80;;;8.40;99.90;;;;;;5026262;28;20045;-71
2022/04/25 01:49:24;;;;;;;17.25;7.35;;;8.40;99.90;;;;;;5021883;28;20033;-71
2022/04/25 01:51:50;;;;;;;12.02;7.30;;;8.40;99.90;;;;;;5024871;28;20132;-71
2022/04/25 01:54:22;;;;;;;27.70;8.55;;;8.40;99.90;;;;;;5025447;28;20092;-71
2022/04/25 01:56:47;;;;;;;13.73;6.97;;;8.40;99.90;;;;;;5020943;28;20045;-71
2022/04/25 01:59:13;;;;;;;12.25;6.82;;;8.40;99.90;;;;;;5018965;28;20045;-71
2022/04/25 02:01:38;;;;;;;14.80;7.35;;;8.30;99.90;;;;;;5022137;28;20057;-71
2022/04/25 02:04:04;;;;;;;12.70;6.68;;;8.30;99.90;;;;;;5027675;28;20065;-71
2022/04/25 02:06:30;;;;;;;19.38;7.97;;;8.40;99.90;;;;;;5029619;28;20137;-71
2022/04/25 02:08:55;;;;;;;13.63;7.70;;;8.40;99.90;;;;;;5025249;28;20116;-71
2022/04/25 02:11:25;;;;;;;14.25;6.75;;;8.40;99.90;;;;;;5024074;28;20046;-71
2022/04/25 02:13:54;;;;;;;17.42;7.40;;;8.40;99.90;;;;;;5023169;28;20046;-71
2022/04/25 02:16:21;;;;;;;13.02;7.25;;;8.40;99.90;;;;;;5025796;28;20037;-71
2022/04/25 02:18:47;;;;;;;12.27;6.97;;;8.40;99.90;;;;;;5027097;28;20934;-71
2022/04/25 02:21:13;;;;;;;12.85;7.00;;;8.40;99.90;;;;;;5027856;28;20041;-71
2022/04/25 02:23:39;;;;;;;13.55;7.00;;;8.30;99.90;;;;;;5027231;28;20041;-71
2022/04/25 02:26:06;;;;;;;15.43;7.45;;;8.30;99.90;;;;;;5024151;28;20099;-71
2022/04/25 02:28:33;;;;;;;12.85;6.82;;;8.30;99.90;;;;;;5025919;28;20083;-71
2022/04/25 02:30:59;;;;;;;16.73;7.45;;;8.30;99.90;;;;;;5025826;28;20099;-71
2022/04/25 02:33:24;;;;;;;16.00;7.90;;;8.30;99.90;;;;;;5029626;28;20049;-71
2022/04/25 02:35:50;;;;;;;19.70;7.82;;;8.30;99.90;;;;;;5026264;28;20389;-71
2022/04/25 02:38:16;;;;;;;12.38;7.03;;;8.20;99.90;;;;;;5022571;28;20068;-72
2022/04/25 02:40:41;;;;;;;15.63;7.38;;;8.20;99.90;;;;;;5026014;28;20041;-72
2022/04/25 02:43:07;;;;;;;12.98;6.97;;;8.10;99.90;;;;;;5026201;28;20493;-72
2022/04/25 02:45:33;;;;;;;11.60;6.70;;;8.10;99.90;;;;;;5026423;28;20288;-72
2022/04/25 02:47:58;;;;;;;20.70;7.40;;;8.00;99.90;;;;;;5027078;28;20054;-72
2022/04/25 02:50:24;;;;;;;11.48;7.05;;;8.00;99.90;;;;;;5026631;28;20070;-73
2022/04/25 02:52:53;;;;;;;10.82;7.00;;;7.90;99.90;;;;;;5028930;28;20085;-72
2022/04/25 02:55:19;;;;;;;12.40;7.75;;;7.90;99.90;;;;;;5027549;28;20041;-72
2022/04/25 02:57:46;;;;;;;12.38;7.20;;;7.80;99.90;;;;;;5025219;28;20048;-72
2022/04/25 03:00:12;;;;;;;10.50;6.78;;;7.80;99.90;;;;;;5025529;28;20413;-72
2022/04/25 03:02:38;;;;;;;13.40;7.20;;;7.70;99.90;;;;;;5026735;28;20045;-72
2022/04/25 03:05:04;;;;;;;12.73;7.53;;;7.70;99.90;;;;;;5028430;28;20485;-72
2022/04/25 03:07:30;;;;;;;15.95;7.55;;;7.70;99.90;;;;;;5025344;28;20390;-72
2022/04/25 03:09:56;;;;;;;12.95;7.13;;;7.60;99.90;;;;;;5025885;28;20064;-72
2022/04/25 03:12:22;;;;;;;15.55;7.50;;;7.60;99.90;;;;;;5023068;28;20042;-72
2022/04/25 03:14:47;;;;;;;11.18;6.80;;;7.60;99.90;;;;;;5024340;28;20095;-72
2022/04/25 03:17:13;;;;;;;10.95;7.25;;;7.50;99.90;;;;;;5025322;28;20444;-72
2022/04/25 03:19:39;;;;;;;14.05;7.18;;;7.50;99.90;;;;;;5022666;28;20079;-72
2022/04/25 03:22:05;;;;;;;14.18;7.32;;;7.50;99.90;;;;;;5025928;28;20148;-72
2022/04/25 03:24:31;;;;;;;14.05;7.38;;;7.50;99.90;;;;;;5022973;28;20103;-72
2022/04/25 03:26:58;;;;;;;12.73;7.05;;;7.40;99.90;;;;;;5026827;28;20041;-72
2022/04/25 03:29:23;;;;;;;12.98;7.18;;;7.50;99.90;;;;;;5024686;28;20038;-72
2022/04/25 03:31:49;;;;;;;14.18;7.20;;;7.40;99.90;;;;;;5025419;28;20493;-72
2022/04/25 03:34:15;;;;;;;12.88;7.05;;;7.40;99.90;;;;;;5023082;28;20037;-72
2022/04/25 03:36:44;;;;;;;14.90;7.70;;;7.40;99.90;;;;;;5026895;28;20509;-72
2022/04/25 03:39:10;;;;;;;15.60;7.55;;;7.40;99.90;;;;;;5025215;28;20484;-72
2022/04/25 03:41:36;;;;;;;16.33;7.70;;;7.40;99.90;;;;;;5027948;28;20565;-72
2022/04/25 03:44:03;;;;;;;13.25;7.30;;;7.30;99.90;;;;;;5025621;28;20076;-72
2022/04/25 03:46:29;;;;;;;15.50;7.10;;;7.30;99.90;;;;;;5023978;28;20060;-72
2022/04/25 03:48:55;;;;;;;12.73;7.47;;;7.30;99.90;;;;;;5027364;28;20504;-72
2022/04/25 03:51:21;;;;;;;11.88;6.82;;;7.30;99.90;;;;;;5026041;28;20057;-72
2022/04/25 03:53:47;;;;;;;15.18;7.25;;;7.30;99.90;;;;;;5029168;28;20067;-72
2022/04/25 03:58:57;;;;;;;16.85;7.00;;;7.30;99.90;;;;;;5027725;28;20041;-72
2022/04/25 04:01:22;;;;;;;12.95;7.25;;;7.30;99.90;;;;;;5022172;28;20064;-72
2022/04/25 04:03:48;;;;;;;23.00;8.32;;;7.30;99.90;;;;;;5028249;28;20049;-71
2022/04/25 04:06:15;;;;;;;14.02;7.10;;;7.40;99.90;;;;;;5026398;28;20298;-71
2022/04/25 04:08:41;;;;;;;15.93;6.70;;;7.40;99.90;;;;;;5024569;28;20037;-71
2022/04/25 04:11:07;;;;;;;14.88;6.60;;;7.50;99.90;;;;;;5027145;28;20046;-70
2022/04/25 04:13:32;;;;;;;14.02;7.55;;;7.50;99.90;;;;;;5025365;28;20041;-71
2022/04/25 04:15:58;;;;;;;13.60;7.45;;;7.60;99.90;;;;;;5023721;28;20041;-71
2022/04/25 04:18:23;;;;;;;11.77;6.75;;;7.60;99.90;;;;;;5013633;28;20400;-70
2022/04/25 04:20:50;;;;;;;13.23;6.78;;;7.70;99.90;;;;;;5025592;28;20049;-72
2022/04/25 04:23:15;;;;;;;10.98;6.65;;;7.70;99.90;;;;;;5021331;28;20037;-72
2022/04/25 04:25:41;;;;;;;12.95;6.55;;;7.80;99.90;;;;;;5026892;28;20577;-71
2022/04/25 04:28:07;;;;;;;15.88;6.68;;;7.80;99.90;;;;;;5022046;28;20049;-71
2022/04/25 04:30:33;;;;;;;13.90;5.90;;;7.90;99.90;;;;;;5027082;28;20033;-71
2022/04/25 04:32:58;;;;;;;13.88;6.85;;;7.90;99.90;;;;;;5024994;28;20045;-72
2022/04/25 04:38:09;;;;;;;12.20;6.57;;;8.00;99.90;;;;;;5024126;28;20068;-71
2022/04/25 04:40:35;;;;;;;12.27;6.00;;;8.00;99.90;;;;;;5024844;28;20040;-71
2022/04/25 04:43:01;;;;;;;12.90;7.22;;;8.00;99.90;;;;;;5040462;28;20108;-71
2022/04/25 04:45:27;;;;;;;14.65;6.90;;;8.00;99.90;;;;;;5024543;28;20077;-71
2022/04/25 04:47:54;;;;;;;17.10;7.18;;;8.00;99.90;;;;;;5021956;28;20072;-71
2022/04/25 04:50:20;;;;;;;17.00;6.72;;;8.00;99.90;;;;;;5023762;28;20045;-72
2022/04/25 04:52:47;;;;;;;15.25;7.32;;;8.10;99.90;;;;;;5024227;28;20048;-72
2022/04/25 04:55:14;;;;;;;12.82;6.40;;;8.10;99.90;;;;;;5022262;28;20080;-72
2022/04/25 04:57:40;;;;;;;15.20;6.97;;;8.10;99.90;;;;;;5026861;28;20137;-71
2022/04/25 05:00:07;;;;;;;13.10;6.38;;;8.10;99.90;;;;;;5025493;28;20048;-72
2022/04/25 05:02:33;;;;;;;12.60;6.63;;;8.10;99.90;;;;;;5023324;28;20044;-73
2022/04/25 05:04:59;;;;;;;15.27;6.63;;;8.10;99.90;;;;;;5022775;28;20397;-71
2022/04/25 05:07:25;;;;;;;14.77;7.25;;;8.10;99.90;;;;;;5018664;28;20748;-71
2022/04/25 05:09:51;;;;;;;15.95;6.35;;;8.10;99.90;;;;;;5026235;28;20567;-71
2022/04/25 05:12:17;;;;;;;11.88;7.30;;;8.10;99.90;;;;;;5023311;28;20045;-71
2022/04/25 05:14:42;;;;;;;12.20;6.40;;;8.10;99.90;;;;;;5024013;28;20049;-71
2022/04/25 05:17:08;;;;;;;14.10;7.40;;;8.10;99.90;;;;;;5022839;28;20042;-71
2022/04/25 05:19:34;;;;;;;15.85;6.45;;;8.10;99.90;;;;;;5023290;28;20037;-71
2022/04/25 05:21:59;;;;;;;13.88;6.47;;;8.10;99.90;;;;;;5024263;28;20528;-72
2022/04/25 05:24:25;;;;;;;11.50;6.78;;;8.10;99.90;;;;;;5024841;28;20049;-72
2022/04/25 05:26:51;;;;;;;11.32;6.55;;;8.10;99.90;;;;;;5023661;28;20485;-72
2022/04/25 05:29:17;;;;;;;11.88;6.88;;;8.10;99.90;;;;;;5022004;28;20048;-72
2022/04/25 05:31:42;;;;;;;15.07;7.35;;;8.10;99.90;;;;;;5018579;28;20045;-71
2022/04/25 05:34:09;;;;;;;12.30;6.60;;;8.20;99.90;;;;;;5018463;28;20072;-71
2022/04/25 05:36:35;;;;;;;13.00;6.57;;;8.10;99.90;;;;;;5023902;28;20429;-71
2022/04/25 05:39:00;;;;;;;14.52;6.95;;;8.10;99.90;;;;;;5029839;28;20033;-72
2022/04/25 05:41:26;;;;;;;13.48;7.45;;;8.10;99.90;;;;;;5025911;28;20061;-71
2022/04/25 05:43:52;;;;;;;12.73;6.93;;;8.10;99.90;;;;;;5029930;28;20056;-72
2022/04/25 05:46:20;;;;;;;15.63;8.05;;;8.10;99.90;;;;;;5025792;28;20103;-71
2022/04/25 05:54:15;;;;;;;12.45;6.63;;;8.10;99.90;;;;;;5029886;28;20492;-71
2022/04/25 05:56:41;;;;;;;17.92;6.85;;;8.10;99.90;;;;;;5028242;28;20047;-71
2022/04/25 05:59:06;;;;;;;12.10;6.57;;;8.10;99.90;;;;;;5026131;28;20041;-71
2022/04/25 06:01:32;;;;;;;14.32;7.65;;;8.20;99.90;;;;;;5024730;28;20057;-71
2022/04/25 06:03:57;;;;;;;15.13;7.57;;;8.20;99.90;;;;;;5022550;28;20057;-72
2022/04/25 06:06:26;;;;;;;15.88;6.93;;;8.20;99.90;;;;;;5024930;28;20048;-72
2022/04/25 06:08:52;;;;;;;12.30;7.53;;;8.30;99.90;;;;;;5027185;28;20434;-72
2022/04/25 06:11:17;;;;;;;18.73;7.45;;;8.30;99.90;;;;;;5026798;28;20045;-72
2022/04/25 06:13:44;;;;;;;12.95;7.35;;;8.40;99.90;;;;;;5028454;28;20080;-72
2022/04/25 06:16:13;;;;;;;17.25;6.88;;;8.50;99.90;;;;;;5025276;28;20148;-72
2022/04/25 06:18:39;;;;;;;12.23;7.03;;;8.50;99.90;;;;;;5023969;28;20549;-72
2022/04/25 06:21:04;;;;;;;14.23;7.53;;;8.50;99.90;;;;;;5025378;28;20128;-73
2022/04/25 06:23:30;;;;;;;12.52;6.97;;;8.60;99.90;;;;;;5018466;28;20049;-71
2022/04/25 06:25:57;;;;;;;14.82;7.55;;;8.60;99.90;;;;;;5021194;28;20057;-71
2022/04/25 06:28:24;;;;;;;14.32;7.57;;;8.60;99.90;;;;;;5025797;28;20041;-71
2022/04/25 06:30:54;;;;;;;12.20;7.07;;;8.50;99.90;;;;;;5012550;28;20041;-71
2022/04/25 06:33:20;;;;;;;13.13;6.95;;;8.60;99.90;;;;;;5023518;28;20037;-72
2022/04/25 06:35:46;;;;;;;14.40;7.22;;;8.60;99.90;;;;;;5026537;28;20049;-71
2022/04/25 06:38:12;;;;;;;13.07;6.80;;;8.60;99.90;;;;;;5024128;28;20053;-71
2022/04/25 06:40:38;;;;;;;16.25;7.63;;;8.60;99.90;;;;;;5031247;28;20038;-71
2022/04/25 06:43:04;;;;;;;14.02;6.82;;;8.60;99.90;;;;;;5025438;28;20061;-71
2022/04/25 06:45:30;;;;;;;12.98;7.40;;;8.70;99.90;;;;;;5022257;28;20049;-71
2022/04/25 06:47:56;;;;;;;11.57;6.78;;;8.60;99.90;;;;;;5026339;28;20050;-71
2022/04/25 06:50:22;;;;;;;12.90;6.15;;;8.60;99.90;;;;;;5017635;28;20208;-71
2022/04/25 06:52:48;;;;;;;14.38;6.65;;;8.60;99.90;;;;;;5030254;28;20088;-72
2022/04/25 06:55:14;;;;;;;13.52;5.97;;;8.50;99.90;;;;;;5025553;28;20088;-72
2022/04/25 06:57:39;;;;;;;12.90;6.72;;;8.50;99.90;;;;;;5019546;28;20524;-71
2022/04/25 07:00:11;;;;;;;18.73;6.63;;;8.50;99.90;;;;;;5026793;28;20052;-70
2022/04/25 07:02:37;;;;;;;12.85;6.45;;;8.50;99.90;;;;;;5025916;28;20481;-71
2022/04/25 07:05:06;;;;;;;13.40;6.10;;;8.60;99.90;;;;;;5019763;28;20045;-70
2022/04/25 07:07:32;;;;;;;10.43;6.05;;;8.60;99.90;;;;;;5027337;28;20400;-71
2022/04/25 07:09:58;;;;;;;11.30;6.20;;;8.60;99.90;;;;;;5019303;28;20268;-71
2022/04/25 07:12:24;;;;;;;15.27;5.70;;;8.70;99.90;;;;;;5019944;28;20339;-70
2022/04/25 07:14:49;;;;;;;14.40;6.65;;;8.70;99.90;;;;;;5020104;28;20098;-71
2022/04/25 07:17:15;;;;;;;10.43;5.72;;;8.90;99.90;;;;;;5027646;28;20038;-71
2022/04/25 07:19:41;;;;;;;16.88;6.30;;;8.90;99.90;;;;;;5023162;28;20045;-72
2022/04/25 07:30:21;;;;;;;11.30;5.50;;;9.00;99.90;;;;;;5022256;28;20520;-77
2022/04/25 07:32:47;;;;;;;9.85;5.88;;;9.00;99.90;;;;;;5022501;28;20049;-76
2022/04/25 07:35:13;;;;;;;12.43;5.68;;;9.10;99.90;;;;;;5022388;28;20611;-73
2022/04/25 07:37:39;;;;;;;10.85;6.03;;;9.20;99.90;;;;;;5028152;28;20061;-72
2022/04/25 07:40:08;;;;;;;10.18;5.28;;;9.20;99.90;;;;;;5027272;28;20084;-72
2022/04/25 07:42:34;;;;;;;11.57;5.75;;;9.20;99.90;;;;;;5020822;28;20053;-72
2022/04/25 07:45:00;;;;;;;11.35;6.05;;;9.10;99.90;;;;;;5024515;28;20045;-72
2022/04/25 07:47:26;;;;;;;11.88;5.22;;;9.20;99.90;;;;;;5024361;28;20254;-72
2022/04/25 07:49:52;;;;;;;13.00;6.00;;;9.20;99.90;;;;;;5024650;28;20227;-71
2022/04/25 07:52:17;;;;;;;11.40;5.88;;;9.20;99.90;;;;;;5028720;28;20036;-72
2022/04/25 07:54:43;;;;;;;14.40;5.78;;;9.20;99.90;;;;;;5026908;28;20041;-72
2022/04/25 07:57:09;;;;;;;12.52;5.65;;;9.20;99.90;;;;;;5020641;28;20555;-72
2022/04/25 07:59:35;;;;;;;9.70;5.10;;;9.30;99.90;;;;;;5025817;28;21339;-72
2022/04/25 08:02:02;;;;;;;11.38;5.57;;;9.30;99.90;;;;;;5023541;28;20061;-72
2022/04/25 08:04:28;;;;;;;14.63;5.80;;;9.30;99.90;;;;;;5025805;28;20037;-71
2022/04/25 08:06:53;;;;;;;11.60;6.80;;;9.40;99.90;;;;;;5022376;28;20049;-71
2022/04/25 08:09:19;;;;;;;16.63;6.78;;;9.50;99.90;;;;;;5028663;28;20563;-71
2022/04/25 08:11:45;;;;;;;12.95;6.53;;;9.50;99.90;;;;;;5025489;28;20084;-72
2022/04/25 08:19:39;;;;;;;10.23;5.72;;;9.60;99.90;;;;;;5026479;28;20497;-72
2022/04/25 08:22:11;;;;;;;12.73;6.15;;;9.60;99.90;;;;;;5098929;27;20131;-71
2022/04/25 08:24:37;;;;;;;12.05;6.00;;;9.60;99.90;;;;;;5064778;28;20044;-71
2022/04/25 08:27:05;;;;;;;12.85;6.25;;;9.70;99.90;;;;;;5066995;28;20044;-71
2022/04/25 08:29:32;;;;;;;12.90;6.22;;;9.80;99.90;;;;;;5062590;28;20488;-71
2022/04/25 08:31:58;;;;;;;10.82;6.55;;;9.90;99.90;;;;;;5062627;28;20170;-72
2022/04/25 08:34:24;;;;;;;10.07;6.13;;;10.00;99.90;;;;;;5060405;28;20066;-72
2022/04/25 08:36:51;;;;;;;13.05;5.78;;;10.00;99.90;;;;;;5060435;28;20053;-71
2022/04/25 08:39:17;;;;;;;11.77;6.22;;;9.90;99.90;;;;;;5065816;28;20496;-72
2022/04/25 08:41:47;;;;;;;9.60;5.35;;;9.90;99.90;;;;;;5064683;28;20271;-72
2022/04/25 08:44:16;;;;;;;12.45;6.07;;;9.90;99.90;;;;;;5054448;28;20068;-72
2022/04/25 08:46:44;;;;;;;9.52;5.50;;;10.00;99.90;;;;;;5062293;28;20090;-72
2022/04/25 08:49:13;;;;;;;10.88;5.07;;;10.20;99.90;;;;;;5059946;28;20305;-72
2022/04/25 08:51:40;;;;;;;11.40;6.13;;;10.20;99.90;;;;;;5070749;28;20033;-72
2022/04/25 08:54:08;;;;;;;14.57;5.78;;;10.30;99.90;;;;;;5051574;28;20195;-71
2022/04/25 08:56:36;;;;;;;9.75;5.72;;;10.20;99.90;;;;;;5065381;28;20037;-71
2022/04/25 08:59:05;;;;;;;8.88;4.88;;;10.30;99.90;;;;;;5087584;28;20077;-72
2022/04/25 09:01:32;;;;;;;10.02;5.15;;;10.40;99.90;;;;;;5088276;28;20040;-72
2022/04/25 09:03:59;;;;;;;11.02;5.93;;;10.50;99.90;;;;;;5083014;28;20043;-72
2022/04/25 09:06:24;;;;;;;12.45;5.72;;;10.50;99.90;;;;;;5088586;28;20418;-72
2022/04/25 09:08:50;;;;;;;16.00;6.40;;;10.70;99.90;;;;;;5086851;28;20037;-72
2022/04/25 09:14:01;;;;;;;11.10;5.35;;;11.00;99.90;;;;;;5083517;28;20437;-71
2022/04/25 09:16:27;;;;;;;8.55;4.93;;;11.20;99.90;;;;;;5087805;28;20040;-71
2022/04/25 09:18:53;;;;;;;12.38;5.18;;;11.30;99.90;;;;;;5100505;28;20038;-71
2022/04/25 09:21:18;;;;;;;10.55;5.43;;;11.30;99.90;;;;;;5122008;27;20059;-71
2022/04/25 09:23:45;;;;;;;11.93;5.57;;;11.40;99.90;;;;;;5120335;27;20199;-71
2022/04/25 09:26:15;;;;;;;12.93;5.05;;;11.40;99.90;;;;;;5117040;27;20043;-71
2022/04/25 09:28:47;;;;;;;10.73;5.10;;;11.50;99.90;;;;;;5108427;27;20035;-71
2022/04/25 09:31:14;;;;;;;11.40;5.15;;;11.60;99.90;;;;;;5124376;27;20043;-71
2022/04/25 09:33:40;;;;;;;7.07;4.50;;;11.80;99.90;;;;;;5105366;27;20040;-71
2022/04/25 09:36:06;;;;;;;10.77;4.95;;;11.90;99.90;;;;;;5093867;27;20048;-72
2022/04/25 09:38:40;;;;;;;8.63;5.03;;;11.80;99.90;;;;;;5111696;27;20043;-71
2022/04/25 09:41:08;;;;;;;8.93;4.85;;;11.80;99.90;;;;;;5106010;27;20036;-70
2022/04/25 09:43:37;;;;;;;11.57;5.43;;;11.80;99.90;;;;;;5102091;27;20044;-72
2022/04/25 09:46:11;;;;;;;12.18;4.82;;;11.80;99.90;;;;;;5088321;27;20118;-71
2022/04/25 09:48:41;;;;;;;10.65;4.85;;;11.70;99.90;;;;;;5102483;27;20067;-71
2022/04/25 09:51:16;;;;;;;8.68;5.07;;;11.70;99.90;;;;;;5094563;27;20129;-70
2022/04/25 09:53:45;;;;;;;8.63;4.63;;;11.70;99.90;;;;;;5089168;27;20058;-70
2022/04/25 09:56:26;;;;;;;11.80;5.57;;;11.70;99.90;;;;;;5078467;28;20043;-72
2022/04/25 09:59:09;;;;;;;11.00;4.80;;;11.60;99.90;;;;;;5084240;28;20068;-71
2022/04/25 10:01:39;;;;;;;9.70;4.30;;;11.60;99.90;;;;;;5107823;27;20051;-71
2022/04/25 10:04:26;;;;;;;9.48;4.15;;;11.60;99.90;;;;;;5100124;28;20297;-70
2022/04/25 10:06:54;;;;;;;9.45;4.10;;;11.60;99.90;;;;;;5104448;27;20039;-71
2022/04/25 10:09:22;;;;;;;9.73;4.78;;;11.60;99.90;;;;;;5101193;27;20050;-71
2022/04/25 10:11:49;;;;;;;9.05;4.13;;;11.60;99.90;;;;;;5105273;27;20275;-70
2022/04/25 10:14:16;;;;;;;8.77;3.90;;;11.60;99.90;;;;;;5087453;28;20066;-72
2022/04/25 10:16:43;;;;;;;8.40;3.75;;;11.60;99.90;;;;;;5110884;27;20108;-72
2022/04/25 10:19:09;;;;;;;8.85;3.60;;;11.50;99.90;;;;;;5103650;27;20048;-72
2022/04/25 10:21:36;;;;;;;7.47;3.90;;;11.50;99.90;;;;;;5100847;27;20494;-72
2022/04/25 10:24:02;;;;;;;5.82;3.20;;;11.40;99.90;;;;;;5086656;27;20051;-72
2022/04/25 10:26:29;;;;;;;8.65;3.72;;;11.40;99.90;;;;;;5112863;27;20040;-72
2022/04/25 10:28:57;;;;;;;14.63;3.40;;;11.30;99.90;;;;;;5098848;28;20092;-72
2022/04/25 10:31:28;;;;;;;12.63;3.80;;;11.30;99.90;;;;;;5101842;28;20078;-71
2022/04/25 10:33:59;;;;;;;8.32;4.05;;;11.30;99.90;;;;;;5089124;28;20039;-70
2022/04/25 10:36:37;;;;;;;10.88;3.80;;;11.30;99.90;;;;;;5078686;28;20085;-73
2022/04/25 10:39:16;;;;;;;11.85;4.05;;;11.30;99.90;;;;;;5108194;27;20427;-71
2022/04/25 10:44:37;;;;;;;7.18;3.78;;;11.30;99.90;;;;;;5105781;27;20451;-71
2022/04/25 10:47:03;;;;;;;9.05;3.80;;;11.40;99.90;;;;;;5090159;28;20558;-71
2022/04/25 10:49:34;;;;;;;8.80;4.00;;;11.50;99.90;;;;;;5090471;28;20392;-71
2022/04/25 10:52:06;;;;;;;15.95;4.38;;;11.60;99.90;;;;;;5089051;28;20058;-71
2022/04/25 10:54:49;;;;;;;11.57;4.22;;;11.70;99.90;;;;;;5114021;27;20035;-72
2022/04/25 10:57:16;;;;;;;9.38;4.70;;;11.80;99.90;;;;;;5109872;27;20062;-71
2022/04/25 10:59:42;;;;;;;5.95;3.58;;;12.00;99.90;;;;;;5101500;27;20035;-71
2022/04/25 11:02:20;;;;;;;10.20;3.95;;;12.20;99.90;;;;;;5106801;27;20418;-72
2022/04/25 11:04:46;;;;;;;7.45;3.88;;;12.40;99.90;;;;;;5096194;27;20051;-71
2022/04/25 11:07:21;;;;;;;10.18;3.83;;;12.50;99.90;;;;;;5099825;27;20039;-71
2022/04/25 11:09:47;;;;;;;7.05;3.53;;;12.70;99.90;;;;;;5106251;27;20097;-71
2022/04/25 11:12:12;;;;;;;6.18;3.65;;;13.00;99.90;;;;;;5107235;27;20055;-71
2022/04/25 11:14:54;;;;;;;10.07;3.40;;;13.40;99.90;;;;;;5088207;28;20043;-71
2022/04/25 11:17:20;;;;;;;9.32;4.15;;;13.70;99.90;;;;;;5092010;27;20314;-71
2022/04/25 11:19:57;;;;;;;8.93;3.55;;;13.80;99.90;;;;;;5109994;27;20357;-72
2022/04/25 11:22:35;;;;;;;8.10;3.58;;;13.70;99.90;;;;;;5093122;27;20126;-72
2022/04/25 11:25:23;;;;;;;6.75;3.38;;;13.70;99.90;;;;;;5090129;27;20047;-71
2022/04/25 11:28:18;;;;;;;10.35;3.63;;;13.70;99.90;;;;;;5089753;27;20516;-72
2022/04/25 11:30:43;;;;;;;6.80;2.88;;;13.60;99.90;;;;;;5070424;27;20582;-71
2022/04/25 11:33:11;;;;;;;10.32;3.28;;;13.60;99.90;;;;;;5106724;27;20087;-72
2022/04/25 11:35:39;;;;;;;9.20;3.28;;;13.70;99.90;;;;;;5105053;27;20035;-72
2022/04/25 11:38:05;;;;;;;7.70;3.15;;;13.70;99.90;;;;;;5101475;27;20048;-72
2022/04/25 11:40:31;;;;;;;8.05;4.28;;;13.60;99.90;;;;;;5102747;28;20089;-72
2022/04/25 11:42:59;;;;;;;8.88;3.92;;;13.60;99.90;;;;;;5086556;27;20178;-71
2022/04/25 11:45:27;;;;;;;9.05;4.18;;;13.40;99.90;;;;;;5082517;28;20031;-72
2022/04/25 11:47:53;;;;;;;8.77;4.50;;;13.20;99.90;;;;;;5105101;27;20040;-72
2022/04/25 11:50:20;;;;;;;8.32;3.83;;;13.10;99.90;;;;;;5105922;27;20047;-72
2022/04/25 11:52:48;;;;;;;11.02;4.60;;;13.00;99.90;;;;;;5111884;27;20038;-72
2022/04/25 11:55:16;;;;;;;11.35;4.00;;;13.00;99.90;;;;;;5105254;27;20051;-71
2022/04/25 11:57:43;;;;;;;8.48;4.38;;;13.00;99.90;;;;;;5089044;28;20272;-71
2022/04/25 12:00:10;;;;;;;8.50;3.97;;;12.90;99.90;;;;;;5087563;28;20074;-71
2022/04/25 12:02:37;;;;;;;11.13;3.83;;;12.80;99.90;;;;;;5108472;27;20047;-71
2022/04/25 12:05:07;;;;;;;15.52;4.32;;;12.80;99.90;;;;;;5086308;28;20147;-70
2022/04/25 12:07:34;;;;;;;12.93;4.22;;;12.80;99.90;;;;;;5105991;27;20063;-71
2022/04/25 12:15:37;;;;;;;10.02;4.03;;;12.60;99.90;;;;;;5102478;28;20391;-71
2022/04/25 12:18:18;;;;;;;13.20;4.50;;;12.50;99.90;;;;;;5108946;27;20579;-70
2022/04/25 12:20:59;;;;;;;10.45;4.35;;;12.60;99.90;;;;;;5087524;28;20046;-71
2022/04/25 12:23:31;;;;;;;12.35;4.03;;;12.60;99.90;;;;;;5092884;28;20052;-72
2022/04/25 12:25:58;;;;;;;9.35;4.65;;;12.50;99.90;;;;;;5085692;28;20502;-71
2022/04/25 12:28:26;;;;;;;5.85;3.70;;;12.50;99.90;;;;;;5089522;28;20126;-71
2022/04/25 12:31:05;;;;;;;9.75;3.75;;;12.50;99.90;;;;;;5086700;28;20063;-71
2022/04/25 12:33:42;;;;;;;10.38;3.72;;;12.60;99.90;;;;;;5108183;28;20069;-71
2022/04/25 12:36:16;;;;;;;10.02;3.95;;;12.90;99.90;;;;;;5099838;28;20052;-70
2022/04/25 12:38:58;;;;;;;13.13;4.50;;;13.00;99.90;;;;;;5112121;28;20039;-71
2022/04/25 12:41:31;;;;;;;9.77;4.22;;;13.20;99.90;;;;;;5104900;28;20181;-71
2022/04/25 12:43:58;;;;;;;7.97;3.80;;;13.50;99.90;;;;;;5108285;28;20122;-71
2022/04/25 12:46:43;;;;;;;9.82;3.75;;;13.50;99.90;;;;;;5105210;28;20044;-70
2022/04/25 12:49:20;;;;;;;8.00;3.67;;;13.50;99.90;;;;;;5099243;28;20035;-71
2022/04/25 12:51:56;;;;;;;10.48;4.22;;;13.40;99.90;;;;;;5111806;28;20035;-70
2022/04/25 12:54:33;;;;;;;9.05;3.72;;;13.40;99.90;;;;;;5106880;28;20126;-71
2022/04/25 12:57:04;;;;;;;11.73;3.65;;;13.50;99.90;;;;;;5106961;28;20035;-71
2022/04/25 12:59:32;;;;;;;10.90;3.90;;;13.40;99.90;;;;;;5090407;28;20403;-70
2022/04/25 13:02:12;;;;;;;6.95;3.70;;;13.40;99.90;;;;;;5103640;28;20040;-70
2022/04/25 13:04:57;;;;;;;8.05;3.40;;;13.40;99.90;;;;;;5092052;28;20043;-71
2022/04/25 13:07:32;;;;;;;14.07;4.00;;;13.30;99.90;;;;;;5111044;27;20497;-72
2022/04/25 13:10:00;;;;;;;6.43;3.42;;;13.20;99.90;;;;;;5112147;27;20115;-71
2022/04/25 13:12:34;;;;;;;5.28;3.42;;;13.20;99.90;;;;;;5093567;28;20032;-71
2022/04/25 13:15:04;;;;;;;11.85;3.95;;;13.10;99.90;;;;;;5109630;27;20507;-71
2022/04/25 13:17:30;;;;;;;8.60;3.50;;;13.20;99.90;;;;;;5109285;27;20586;-71
2022/04/25 13:19:56;;;;;;;8.55;3.65;;;13.20;99.90;;;;;;5108382;27;20089;-72
2022/04/25 13:22:22;;;;;;;8.98;3.30;;;13.30;99.90;;;;;;5088555;28;20067;-71
2022/04/25 13:24:48;;;;;;;8.25;3.20;;;13.40;99.90;;;;;;5104985;27;20131;-72
2022/04/25 13:27:15;;;;;;;10.48;3.60;;;13.40;99.90;;;;;;5090240;27;20055;-71